createdAt,value
2022-09-09T00:00:49.026Z,1006.93
2022-09-09T00:01:53.252Z,1006.92
2022-09-09T00:02:57.849Z,1006.94
2022-09-09T00:04:02.070Z,1006.94
2022-09-09T00:05:06.271Z,1006.94
2022-09-09T00:06:10.580Z,1006.94
2022-09-09T00:07:14.924Z,1006.91
2022-09-09T00:08:19.271Z,1006.90
2022-09-09T00:09:23.553Z,1006.91
2022-09-09T00:10:27.982Z,1006.84
2022-09-09T00:11:32.217Z,1006.84
2022-09-09T00:12:36.609Z,1006.83
2022-09-09T00:13:40.897Z,1006.77
2022-09-09T00:14:45.256Z,1006.74
2022-09-09T00:15:49.645Z,1006.75
2022-09-09T00:16:53.895Z,1006.70
2022-09-09T00:17:58.202Z,1006.70
2022-09-09T00:19:02.590Z,1006.69
2022-09-09T00:20:06.837Z,1006.70
2022-09-09T00:21:25.239Z,1006.70
2022-09-09T00:22:28.190Z,1006.73
2022-09-09T00:23:32.559Z,1006.75
2022-09-09T00:24:36.790Z,1006.73
2022-09-09T00:25:41.211Z,1006.77
2022-09-09T00:26:45.570Z,1006.76
2022-09-09T00:27:49.814Z,1006.78
2022-09-09T00:28:54.159Z,1006.79
2022-09-09T00:29:58.450Z,1006.77
2022-09-09T00:31:02.938Z,1006.78
2022-09-09T00:32:07.142Z,1006.80
2022-09-09T00:33:13.929Z,1006.79
2022-09-09T00:34:15.928Z,1006.80
2022-09-09T00:35:20.167Z,1006.80
2022-09-09T00:36:24.516Z,1006.79
2022-09-09T00:37:28.796Z,1006.81
2022-09-09T00:38:33.391Z,1006.84
2022-09-09T00:39:37.505Z,1006.86
2022-09-09T00:40:41.894Z,1006.85
2022-09-09T00:41:46.146Z,1006.87
2022-09-09T00:42:50.457Z,1006.88
2022-09-09T00:43:54.884Z,1006.88
2022-09-09T00:44:59.218Z,1006.84
2022-09-09T00:46:03.527Z,1006.83
2022-09-09T00:47:07.783Z,1006.82
2022-09-09T00:48:12.136Z,1006.82
2022-09-09T00:49:16.422Z,1006.82
2022-09-09T00:50:20.837Z,1006.81
2022-09-09T00:51:25.081Z,1006.79
2022-09-09T00:52:29.402Z,1006.79
2022-09-09T00:53:33.732Z,1006.78
2022-09-09T00:54:38.037Z,1006.80
2022-09-09T00:55:42.402Z,1006.81
2022-09-09T00:56:46.745Z,1006.82
2022-09-09T00:57:50.988Z,1006.82
2022-09-09T00:58:55.391Z,1006.86
2022-09-09T00:59:59.741Z,1006.87
2022-09-09T01:01:04.062Z,1006.86
2022-09-09T01:02:08.438Z,1006.88
2022-09-09T01:03:12.829Z,1006.88
2022-09-09T01:04:17.052Z,1006.86
2022-09-09T01:05:21.410Z,1006.84
2022-09-09T01:06:25.657Z,1006.82
2022-09-09T01:07:30.082Z,1006.83
2022-09-09T01:08:34.556Z,1006.86
2022-09-09T01:09:38.787Z,1006.86
2022-09-09T01:10:43.214Z,1006.87
2022-09-09T01:11:47.475Z,1006.86
2022-09-09T01:12:51.781Z,1006.85
2022-09-09T01:13:56.163Z,1006.82
2022-09-09T01:15:00.495Z,1006.83
2022-09-09T01:16:04.755Z,1006.82
2022-09-09T01:17:09.084Z,1006.82
2022-09-09T01:18:13.471Z,1006.81
2022-09-09T01:19:17.734Z,1006.85
2022-09-09T01:20:22.042Z,1006.89
2022-09-09T01:21:26.414Z,1006.91
2022-09-09T01:22:30.790Z,1006.94
2022-09-09T01:23:35.193Z,1006.97
2022-09-09T01:24:39.470Z,1006.96
2022-09-09T01:25:43.763Z,1006.98
2022-09-09T01:26:48.187Z,1007.00
2022-09-09T01:27:52.571Z,1007.02
2022-09-09T01:28:56.882Z,1007.08
2022-09-09T01:30:01.177Z,1007.10
2022-09-09T01:31:05.589Z,1007.13
2022-09-09T01:32:09.776Z,1007.12
2022-09-09T01:33:14.279Z,1007.13
2022-09-09T01:34:18.614Z,1007.15
2022-09-09T01:35:22.859Z,1007.14
2022-09-09T01:36:27.290Z,1007.14
2022-09-09T01:37:31.551Z,1007.13
2022-09-09T01:38:36.052Z,1007.15
2022-09-09T01:39:40.319Z,1007.14
2022-09-09T01:40:44.600Z,1007.13
2022-09-09T01:41:48.950Z,1007.14
2022-09-09T01:42:53.268Z,1007.15
2022-09-09T01:43:57.625Z,1007.18
2022-09-09T01:45:02.026Z,1007.18
2022-09-09T01:46:06.335Z,1007.16
2022-09-09T01:47:10.580Z,1007.17
2022-09-09T01:48:14.950Z,1007.18
2022-09-09T01:49:19.237Z,1007.19
2022-09-09T01:50:23.592Z,1007.18
2022-09-09T01:51:27.943Z,1007.18
2022-09-09T01:52:32.329Z,1007.19
2022-09-09T01:53:36.532Z,1007.17
2022-09-09T01:54:40.866Z,1007.18
2022-09-09T01:55:45.226Z,1007.20
2022-09-09T01:56:49.645Z,1007.18
2022-09-09T01:57:53.966Z,1007.16
2022-09-09T01:58:58.203Z,1007.16
2022-09-09T02:00:02.536Z,1007.15
2022-09-09T02:01:07.020Z,1007.15
2022-09-09T02:02:11.360Z,1007.13
2022-09-09T02:03:15.546Z,1007.12
2022-09-09T02:04:20.011Z,1007.13
2022-09-09T02:05:24.389Z,1007.10
2022-09-09T02:06:28.613Z,1007.13
2022-09-09T02:07:33.031Z,1007.14
2022-09-09T02:08:37.401Z,1007.16
2022-09-09T02:09:41.678Z,1007.17
2022-09-09T02:10:45.959Z,1007.19
2022-09-09T02:11:50.303Z,1007.21
2022-09-09T02:12:54.631Z,1007.20
2022-09-09T02:13:58.989Z,1007.21
2022-09-09T02:15:03.255Z,1007.24
2022-09-09T02:16:07.579Z,1007.23
2022-09-09T02:17:11.980Z,1007.24
2022-09-09T02:18:16.270Z,1007.24
2022-09-09T02:19:20.574Z,1007.23
2022-09-09T02:20:24.917Z,1007.23
2022-09-09T02:21:29.222Z,1007.23
2022-09-09T02:22:33.505Z,1007.24
2022-09-09T02:23:37.966Z,1007.23
2022-09-09T02:24:42.188Z,1007.23
2022-09-09T02:25:46.604Z,1007.22
2022-09-09T02:26:50.812Z,1007.22
2022-09-09T02:27:55.269Z,1007.19
2022-09-09T02:28:59.501Z,1007.18
2022-09-09T02:30:03.951Z,1007.18
2022-09-09T02:31:08.458Z,1007.21
2022-09-09T02:32:12.619Z,1007.22
2022-09-09T02:33:16.988Z,1007.21
2022-09-09T02:34:21.344Z,1007.17
2022-09-09T02:35:25.604Z,1007.13
2022-09-09T02:36:30.028Z,1007.13
2022-09-09T02:37:34.378Z,1007.13
2022-09-09T02:38:38.647Z,1007.13
2022-09-09T02:39:42.960Z,1007.14
2022-09-09T02:40:47.272Z,1007.14
2022-09-09T02:41:51.650Z,1007.13
2022-09-09T02:42:55.959Z,1007.12
2022-09-09T02:44:00.232Z,1007.10
2022-09-09T02:45:04.540Z,1007.11
2022-09-09T02:46:09.026Z,1007.10
2022-09-09T02:47:13.186Z,1007.10
2022-09-09T02:48:17.597Z,1007.09
2022-09-09T02:49:21.913Z,1007.12
2022-09-09T02:50:29.236Z,1007.17
2022-09-09T02:51:32.730Z,1007.18
2022-09-09T02:52:36.952Z,1007.17
2022-09-09T02:53:41.396Z,1007.15
2022-09-09T02:54:45.679Z,1007.16
2022-09-09T02:55:49.997Z,1007.15
2022-09-09T02:56:54.420Z,1007.13
2022-09-09T02:57:58.787Z,1007.11
2022-09-09T02:59:03.062Z,1007.13
2022-09-09T03:00:07.448Z,1007.14
2022-09-09T03:01:11.784Z,1007.17
2022-09-09T03:02:16.274Z,1007.19
2022-09-09T03:03:20.454Z,1007.21
2022-09-09T03:04:24.786Z,1007.19
2022-09-09T03:05:29.061Z,1007.16
2022-09-09T03:06:33.364Z,1007.18
2022-09-09T03:07:37.676Z,1007.18
2022-09-09T03:08:49.295Z,1007.18
2022-09-09T03:09:46.325Z,1007.21
2022-09-09T03:10:50.644Z,1007.22
2022-09-09T03:11:54.989Z,1007.23
2022-09-09T03:12:59.407Z,1007.24
2022-09-09T03:14:03.647Z,1007.24
2022-09-09T03:15:07.981Z,1007.19
2022-09-09T03:16:12.320Z,1007.20
2022-09-09T03:17:16.669Z,1007.20
2022-09-09T03:18:21.012Z,1007.22
2022-09-09T03:19:25.312Z,1007.24
2022-09-09T03:20:29.719Z,1007.23
2022-09-09T03:21:34.000Z,1007.23
2022-09-09T03:22:38.293Z,1007.23
2022-09-09T03:23:42.784Z,1007.25
2022-09-09T03:24:47.110Z,1007.30
2022-09-09T03:25:51.487Z,1007.31
2022-09-09T03:26:55.752Z,1007.32
2022-09-09T03:28:00.088Z,1007.28
2022-09-09T03:29:04.471Z,1007.28
2022-09-09T03:30:08.737Z,1007.28
2022-09-09T03:31:13.252Z,1007.27
2022-09-09T03:32:17.412Z,1007.29
2022-09-09T03:33:21.790Z,1007.30
2022-09-09T03:34:26.063Z,1007.28
2022-09-09T03:35:30.513Z,1007.29
2022-09-09T03:36:34.768Z,1007.31
2022-09-09T03:37:39.071Z,1007.32
2022-09-09T03:38:43.457Z,1007.30
2022-09-09T03:39:47.833Z,1007.32
2022-09-09T03:40:52.086Z,1007.31
2022-09-09T03:41:56.494Z,1007.31
2022-09-09T03:43:00.836Z,1007.31
2022-09-09T03:44:05.234Z,1007.31
2022-09-09T03:45:09.495Z,1007.33
2022-09-09T03:46:13.992Z,1007.34
2022-09-09T03:47:18.187Z,1007.36
2022-09-09T03:48:22.449Z,1007.39
2022-09-09T03:49:26.861Z,1007.41
2022-09-09T03:50:31.235Z,1007.42
2022-09-09T03:51:35.503Z,1007.42
2022-09-09T03:52:39.876Z,1007.41
2022-09-09T03:53:44.145Z,1007.43
2022-09-09T03:54:48.431Z,1007.41
2022-09-09T03:55:52.832Z,1007.40
2022-09-09T03:56:57.274Z,1007.39
2022-09-09T03:58:01.614Z,1007.42
2022-09-09T03:59:05.879Z,1007.39
2022-09-09T04:00:10.278Z,1007.37
2022-09-09T04:01:14.844Z,1007.37
2022-09-09T04:02:19.076Z,1007.38
2022-09-09T04:03:27.662Z,1007.39
2022-09-09T04:04:27.544Z,1007.38
2022-09-09T04:05:31.833Z,1007.38
2022-09-09T04:06:36.140Z,1007.38
2022-09-09T04:07:40.552Z,1007.42
2022-09-09T04:08:44.829Z,1007.44
2022-09-09T04:09:49.152Z,1007.47
2022-09-09T04:10:53.533Z,1007.48
2022-09-09T04:11:57.872Z,1007.51
2022-09-09T04:13:02.129Z,1007.49
2022-09-09T04:14:06.549Z,1007.46
2022-09-09T04:15:10.901Z,1007.45
2022-09-09T04:16:15.230Z,1007.46
2022-09-09T04:17:19.510Z,1007.48
2022-09-09T04:18:23.832Z,1007.43
2022-09-09T04:19:28.169Z,1007.39
2022-09-09T04:20:32.459Z,1007.40
2022-09-09T04:21:36.875Z,1007.42
2022-09-09T04:22:41.248Z,1007.44
2022-09-09T04:23:45.584Z,1007.47
2022-09-09T04:24:49.834Z,1007.43
2022-09-09T04:25:54.235Z,1007.45
2022-09-09T04:26:58.520Z,1007.44
2022-09-09T04:28:02.916Z,1007.47
2022-09-09T04:29:07.129Z,1007.50
2022-09-09T04:30:11.477Z,1007.50
2022-09-09T04:31:15.929Z,1007.52
2022-09-09T04:32:20.193Z,1007.51
2022-09-09T04:33:24.445Z,1007.49
2022-09-09T04:34:28.919Z,1007.50
2022-09-09T04:35:33.312Z,1007.51
2022-09-09T04:36:37.630Z,1007.51
2022-09-09T04:37:41.996Z,1007.51
2022-09-09T04:38:46.345Z,1007.51
2022-09-09T04:39:50.670Z,1007.53
2022-09-09T04:40:54.961Z,1007.53
2022-09-09T04:41:59.210Z,1007.53
2022-09-09T04:43:03.595Z,1007.53
2022-09-09T04:44:07.845Z,1007.54
2022-09-09T04:45:12.205Z,1007.55
2022-09-09T04:46:19.585Z,1007.58
2022-09-09T04:47:23.067Z,1007.60
2022-09-09T04:48:27.353Z,1007.58
2022-09-09T04:49:31.620Z,1007.56
2022-09-09T04:50:35.926Z,1007.58
2022-09-09T04:51:40.285Z,1007.58
2022-09-09T04:52:44.541Z,1007.60
2022-09-09T04:53:48.901Z,1007.62
2022-09-09T04:54:53.175Z,1007.64
2022-09-09T04:55:57.660Z,1007.72
2022-09-09T04:57:01.929Z,1007.72
2022-09-09T04:58:06.376Z,1007.75
2022-09-09T04:59:10.642Z,1007.76
2022-09-09T05:00:14.897Z,1007.79
2022-09-09T05:01:19.426Z,1007.81
2022-09-09T05:02:23.734Z,1007.80
2022-09-09T05:03:28.001Z,1007.81
2022-09-09T05:04:32.276Z,1007.83
2022-09-09T05:05:36.707Z,1007.82
2022-09-09T05:06:40.899Z,1007.83
2022-09-09T05:07:45.370Z,1007.84
2022-09-09T05:08:49.705Z,1007.83
2022-09-09T05:09:53.950Z,1007.85
2022-09-09T05:10:58.349Z,1007.86
2022-09-09T05:12:02.715Z,1007.89
2022-09-09T05:13:07.119Z,1007.87
2022-09-09T05:14:11.470Z,1007.85
2022-09-09T05:15:15.942Z,1007.82
2022-09-09T05:16:20.291Z,1007.80
2022-09-09T05:17:24.485Z,1007.83
2022-09-09T05:18:28.950Z,1007.82
2022-09-09T05:19:33.272Z,1007.84
2022-09-09T05:20:37.494Z,1007.82
2022-09-09T05:21:41.854Z,1007.80
2022-09-09T05:22:46.201Z,1007.77
2022-09-09T05:23:50.524Z,1007.75
2022-09-09T05:24:54.915Z,1007.72
2022-09-09T05:25:59.251Z,1007.71
2022-09-09T05:27:03.610Z,1007.70
2022-09-09T05:28:07.920Z,1007.71
2022-09-09T05:29:12.390Z,1007.68
2022-09-09T05:30:16.738Z,1007.66
2022-09-09T05:31:21.112Z,1007.67
2022-09-09T05:32:25.468Z,1007.69
2022-09-09T05:33:29.818Z,1007.72
2022-09-09T05:34:34.096Z,1007.73
2022-09-09T05:35:38.492Z,1007.74
2022-09-09T05:36:42.748Z,1007.72
2022-09-09T05:37:47.185Z,1007.70
2022-09-09T05:38:51.517Z,1007.69
2022-09-09T05:39:56.045Z,1007.67
2022-09-09T05:41:00.213Z,1007.66
2022-09-09T05:42:04.562Z,1007.64
2022-09-09T05:43:08.952Z,1007.66
2022-09-09T05:44:13.296Z,1007.73
2022-09-09T05:45:17.625Z,1007.74
2022-09-09T05:46:21.975Z,1007.77
2022-09-09T05:47:26.207Z,1007.77
2022-09-09T05:48:30.594Z,1007.79
2022-09-09T05:49:34.841Z,1007.78
2022-09-09T05:50:39.143Z,1007.81
2022-09-09T05:51:43.591Z,1007.83
2022-09-09T05:52:47.953Z,1007.86
2022-09-09T05:53:52.250Z,1007.84
2022-09-09T05:54:56.560Z,1007.85
2022-09-09T05:56:00.977Z,1007.85
2022-09-09T05:57:05.296Z,1007.86
2022-09-09T05:58:09.670Z,1007.86
2022-09-09T05:59:13.930Z,1007.88
2022-09-09T06:00:18.296Z,1007.84
2022-09-09T06:01:22.762Z,1007.85
2022-09-09T06:02:27.144Z,1007.86
2022-09-09T06:03:31.415Z,1007.88
2022-09-09T06:04:35.725Z,1007.89
2022-09-09T06:05:40.031Z,1007.91
2022-09-09T06:06:44.336Z,1007.94
2022-09-09T06:07:48.695Z,1007.92
2022-09-09T06:08:52.952Z,1007.90
2022-09-09T06:09:57.435Z,1007.90
2022-09-09T06:11:01.723Z,1007.87
2022-09-09T06:12:06.104Z,1007.87
2022-09-09T06:13:10.421Z,1007.86
2022-09-09T06:14:14.800Z,1007.89
2022-09-09T06:15:19.053Z,1007.87
2022-09-09T06:16:23.438Z,1007.90
2022-09-09T06:17:27.723Z,1007.91
2022-09-09T06:18:32.119Z,1007.90
2022-09-09T06:19:36.473Z,1007.91
2022-09-09T06:20:40.727Z,1007.91
2022-09-09T06:21:45.151Z,1007.92
2022-09-09T06:22:49.460Z,1007.92
2022-09-09T06:23:56.643Z,1007.92
2022-09-09T06:24:58.261Z,1007.92
2022-09-09T06:26:02.463Z,1007.93
2022-09-09T06:27:06.798Z,1007.95
2022-09-09T06:28:11.232Z,1007.98
2022-09-09T06:29:15.574Z,1007.99
2022-09-09T06:30:19.906Z,1008.00
2022-09-09T06:31:29.321Z,1008.02
2022-09-09T06:32:28.548Z,1008.02
2022-09-09T06:33:32.840Z,1008.02
2022-09-09T06:34:37.141Z,1008.02
2022-09-09T06:35:41.480Z,1008.04
2022-09-09T06:36:45.919Z,1008.08
2022-09-09T06:37:50.162Z,1008.10
2022-09-09T06:38:54.575Z,1008.08
2022-09-09T06:39:58.942Z,1008.07
2022-09-09T06:41:03.246Z,1008.08
2022-09-09T06:42:07.601Z,1008.07
2022-09-09T06:43:11.968Z,1008.08
2022-09-09T06:44:16.240Z,1008.05
2022-09-09T06:45:20.550Z,1008.04
2022-09-09T06:46:25.037Z,1008.04
2022-09-09T06:47:29.217Z,1008.08
2022-09-09T06:48:33.555Z,1008.09
2022-09-09T06:49:37.858Z,1008.07
2022-09-09T06:50:42.201Z,1008.10
2022-09-09T06:51:46.501Z,1008.13
2022-09-09T06:52:50.806Z,1008.14
2022-09-09T06:53:55.160Z,1008.19
2022-09-09T06:54:59.539Z,1008.15
2022-09-09T06:56:03.892Z,1008.15
2022-09-09T06:57:33.719Z,1008.13
2022-09-09T06:58:12.594Z,1008.13
2022-09-09T06:59:16.839Z,1008.12
2022-09-09T07:00:21.031Z,1008.12
2022-09-09T07:01:25.290Z,1008.13
2022-09-09T07:02:29.750Z,1008.14
2022-09-09T07:03:34.073Z,1008.13
2022-09-09T07:04:38.326Z,1008.14
2022-09-09T07:05:42.655Z,1008.16
2022-09-09T07:06:47.090Z,1008.18
2022-09-09T07:07:51.319Z,1008.18
2022-09-09T07:08:56.754Z,1008.19
2022-09-09T07:09:59.951Z,1008.18
2022-09-09T07:11:04.298Z,1008.18
2022-09-09T07:12:08.575Z,1008.18
2022-09-09T07:13:13.007Z,1008.24
2022-09-09T07:14:17.266Z,1008.23
2022-09-09T07:15:24.681Z,1008.24
2022-09-09T07:16:28.200Z,1008.28
2022-09-09T07:17:32.422Z,1008.32
2022-09-09T07:18:36.936Z,1008.34
2022-09-09T07:19:41.060Z,1008.34
2022-09-09T07:20:45.413Z,1008.36
2022-09-09T07:21:49.734Z,1008.39
2022-09-09T07:22:54.029Z,1008.42
2022-09-09T07:23:58.352Z,1008.41
2022-09-09T07:25:02.758Z,1008.43
2022-09-09T07:26:07.039Z,1008.42
2022-09-09T07:27:11.551Z,1008.41
2022-09-09T07:28:15.902Z,1008.40
2022-09-09T07:29:21.107Z,1008.41
2022-09-09T07:30:27.796Z,1008.40
2022-09-09T07:31:28.921Z,1008.40
2022-09-09T07:32:33.189Z,1008.40
2022-09-09T07:33:37.586Z,1008.43
2022-09-09T07:34:41.803Z,1008.44
2022-09-09T07:35:46.094Z,1008.45
2022-09-09T07:36:50.449Z,1008.46
2022-09-09T07:37:54.785Z,1008.47
2022-09-09T07:38:59.195Z,1008.46
2022-09-09T07:40:03.612Z,1008.46
2022-09-09T07:41:07.806Z,1008.46
2022-09-09T07:42:12.154Z,1008.47
2022-09-09T07:43:17.494Z,1008.48
2022-09-09T07:44:20.860Z,1008.48
2022-09-09T07:45:25.187Z,1008.52
2022-09-09T07:46:29.639Z,1008.51
2022-09-09T07:47:33.949Z,1008.52
2022-09-09T07:48:38.216Z,1008.54
2022-09-09T07:49:42.579Z,1008.55
2022-09-09T07:50:46.999Z,1008.59
2022-09-09T07:51:51.306Z,1008.59
2022-09-09T07:52:57.593Z,1008.56
2022-09-09T07:53:59.954Z,1008.59
2022-09-09T07:55:04.265Z,1008.58
2022-09-09T07:56:08.682Z,1008.58
2022-09-09T07:57:12.956Z,1008.56
2022-09-09T07:58:17.272Z,1008.56
2022-09-09T07:59:21.655Z,1008.58
2022-09-09T08:00:25.950Z,1008.60
2022-09-09T08:01:30.348Z,1008.61
2022-09-09T08:02:34.789Z,1008.61
2022-09-09T08:03:39.053Z,1008.62
2022-09-09T08:04:43.374Z,1008.61
2022-09-09T08:05:47.738Z,1008.63
2022-09-09T08:06:52.056Z,1008.64
2022-09-09T08:07:56.446Z,1008.65
2022-09-09T08:09:00.824Z,1008.68
2022-09-09T08:10:05.174Z,1008.69
2022-09-09T08:11:09.471Z,1008.67
2022-09-09T08:12:13.902Z,1008.66
2022-09-09T08:13:18.898Z,1008.68
2022-09-09T08:14:22.467Z,1008.70
2022-09-09T08:15:26.909Z,1008.74
2022-09-09T08:16:31.217Z,1008.74
2022-09-09T08:17:35.611Z,1008.73
2022-09-09T08:18:39.879Z,1008.77
2022-09-09T08:19:44.248Z,1008.83
2022-09-09T08:20:48.534Z,1008.83
2022-09-09T08:21:52.948Z,1008.82
2022-09-09T08:22:57.274Z,1008.83
2022-09-09T08:24:01.642Z,1008.78
2022-09-09T08:25:06.017Z,1008.75
2022-09-09T08:26:10.308Z,1008.72
2022-09-09T08:27:14.630Z,1008.71
2022-09-09T08:28:18.963Z,1008.68
2022-09-09T08:29:23.425Z,1008.67
2022-09-09T08:30:27.801Z,1008.67
2022-09-09T08:31:32.213Z,1008.66
2022-09-09T08:32:36.608Z,1008.63
2022-09-09T08:33:40.964Z,1008.63
2022-09-09T08:34:46.700Z,1008.63
2022-09-09T08:35:49.764Z,1008.63
2022-09-09T08:36:54.029Z,1008.64
2022-09-09T08:37:58.330Z,1008.62
2022-09-09T08:39:02.668Z,1008.60
2022-09-09T08:40:07.179Z,1008.60
2022-09-09T08:41:11.444Z,1008.59
2022-09-09T08:42:15.817Z,1008.60
2022-09-09T08:43:20.137Z,1008.63
2022-09-09T08:44:24.576Z,1008.64
2022-09-09T08:45:28.857Z,1008.60
2022-09-09T08:46:33.237Z,1008.57
2022-09-09T08:47:37.537Z,1008.60
2022-09-09T08:48:41.941Z,1008.61
2022-09-09T08:49:46.298Z,1008.61
2022-09-09T08:50:50.710Z,1008.57
2022-09-09T08:51:55.035Z,1008.57
2022-09-09T08:52:59.377Z,1008.58
2022-09-09T08:54:03.723Z,1008.62
2022-09-09T08:55:08.173Z,1008.65
2022-09-09T08:56:12.443Z,1008.66
2022-09-09T08:57:16.775Z,1008.71
2022-09-09T08:58:21.241Z,1008.71
2022-09-09T08:59:25.591Z,1008.69
2022-09-09T09:00:29.922Z,1008.69
2022-09-09T09:01:34.389Z,1008.72
2022-09-09T09:02:44.707Z,1008.72
2022-09-09T09:03:47.629Z,1008.72
2022-09-09T09:04:52.003Z,1008.71
2022-09-09T09:05:56.309Z,1008.69
2022-09-09T09:07:00.809Z,1008.70
2022-09-09T09:08:05.158Z,1008.69
2022-09-09T09:09:09.499Z,1008.72
2022-09-09T09:10:37.645Z,1008.73
2022-09-09T09:11:18.212Z,1008.72
2022-09-09T09:12:22.504Z,1008.73
2022-09-09T09:13:26.978Z,1008.71
2022-09-09T09:14:31.322Z,1008.70
2022-09-09T09:15:35.710Z,1008.68
2022-09-09T09:16:39.970Z,1008.66
2022-09-09T09:17:44.402Z,1008.67
2022-09-09T09:18:48.777Z,1008.67
2022-09-09T09:19:53.131Z,1008.66
2022-09-09T09:20:57.434Z,1008.67
2022-09-09T09:22:01.887Z,1008.66
2022-09-09T09:23:06.216Z,1008.66
2022-09-09T09:24:10.642Z,1008.65
2022-09-09T09:25:15.012Z,1008.66
2022-09-09T09:26:19.454Z,1008.65
2022-09-09T09:27:23.852Z,1008.62
2022-09-09T09:28:28.219Z,1008.63
2022-09-09T09:29:32.583Z,1008.62
2022-09-09T09:30:36.880Z,1008.60
2022-09-09T09:31:41.291Z,1008.58
2022-09-09T09:32:45.619Z,1008.54
2022-09-09T09:33:50.003Z,1008.57
2022-09-09T09:34:54.338Z,1008.57
2022-09-09T09:35:58.761Z,1008.59
2022-09-09T09:37:03.063Z,1008.63
2022-09-09T09:40:16.199Z,1008.62
2022-09-09T09:41:20.702Z,1008.63
2022-09-09T09:42:25.080Z,1008.59
2022-09-09T09:43:29.518Z,1008.59
2022-09-09T09:44:33.884Z,1008.58
2022-09-09T09:45:38.174Z,1008.60
2022-09-09T09:46:42.701Z,1008.60
2022-09-09T09:47:47.063Z,1008.59
2022-09-09T09:48:51.369Z,1008.62
2022-09-09T09:49:55.872Z,1008.60
2022-09-09T09:51:00.188Z,1008.60
2022-09-09T09:52:04.665Z,1008.59
2022-09-09T09:53:09.049Z,1008.57
2022-09-09T09:54:13.481Z,1008.55
2022-09-09T09:55:17.891Z,1008.55
2022-09-09T09:56:22.199Z,1008.53
2022-09-09T09:57:26.673Z,1008.53
2022-09-09T09:58:30.961Z,1008.52
2022-09-09T09:59:39.538Z,1008.51
2022-09-09T10:00:39.661Z,1008.51
2022-09-09T10:01:44.297Z,1008.52
2022-09-09T10:02:48.464Z,1008.51
2022-09-09T10:03:52.825Z,1008.53
2022-09-09T10:04:57.395Z,1008.51
2022-09-09T10:06:01.561Z,1008.51
2022-09-09T10:07:06.012Z,1008.51
2022-09-09T10:08:10.458Z,1008.49
2022-09-09T10:09:14.800Z,1008.47
2022-09-09T10:10:19.170Z,1008.47
2022-09-09T10:11:23.548Z,1008.47
2022-09-09T10:12:27.955Z,1008.49
2022-09-09T10:13:32.210Z,1008.48
2022-09-09T10:14:36.648Z,1008.51
2022-09-09T10:15:40.955Z,1008.53
2022-09-09T10:16:45.233Z,1008.53
2022-09-09T10:17:49.626Z,1008.54
2022-09-09T10:18:53.989Z,1008.51
2022-09-09T10:19:58.442Z,1008.50
2022-09-09T10:21:02.893Z,1008.50
2022-09-09T10:22:07.327Z,1008.46
2022-09-09T10:23:11.682Z,1008.50
2022-09-09T10:24:16.157Z,1008.52
2022-09-09T10:25:20.476Z,1008.54
2022-09-09T10:26:27.964Z,1008.52
2022-09-09T10:27:31.356Z,1008.51
2022-09-09T10:28:35.946Z,1008.52
2022-09-09T10:29:40.117Z,1008.54
2022-09-09T10:30:44.537Z,1008.51
2022-09-09T10:31:48.847Z,1008.49
2022-09-09T10:32:53.317Z,1008.48
2022-09-09T10:33:57.639Z,1008.46
2022-09-09T10:35:02.104Z,1008.49
2022-09-09T10:36:06.507Z,1008.48
2022-09-09T10:37:10.835Z,1008.48
2022-09-09T10:38:15.291Z,1008.49
2022-09-09T10:39:19.705Z,1008.52
2022-09-09T10:40:24.103Z,1008.53
2022-09-09T10:41:28.570Z,1008.52
2022-09-09T10:42:32.978Z,1008.53
2022-09-09T10:43:37.363Z,1008.51
2022-09-09T10:44:41.629Z,1008.47
2022-09-09T10:45:46.142Z,1008.47
2022-09-09T10:46:50.489Z,1008.44
2022-09-09T10:47:54.785Z,1008.47
2022-09-09T10:48:59.324Z,1008.44
2022-09-09T10:50:03.568Z,1008.41
2022-09-09T10:51:08.005Z,1008.42
2022-09-09T10:52:12.348Z,1008.43
2022-09-09T10:53:16.698Z,1008.45
2022-09-09T10:54:21.106Z,1008.44
2022-09-09T10:55:29.275Z,1008.45
2022-09-09T10:56:29.849Z,1008.46
2022-09-09T10:57:34.276Z,1008.47
2022-09-09T10:58:38.667Z,1008.50
2022-09-09T10:59:43.214Z,1008.48
2022-09-09T11:00:47.493Z,1008.48
2022-09-09T11:01:51.826Z,1008.48
2022-09-09T11:02:56.251Z,1008.49
2022-09-09T11:04:00.673Z,1008.46
2022-09-09T11:05:05.095Z,1008.45
2022-09-09T11:06:09.641Z,1008.47
2022-09-09T11:07:13.841Z,1008.49
2022-09-09T11:08:18.441Z,1008.49
2022-09-09T11:09:22.668Z,1008.50
2022-09-09T11:10:27.116Z,1008.49
2022-09-09T11:11:31.472Z,1008.52
2022-09-09T11:12:35.874Z,1008.55
2022-09-09T11:13:40.261Z,1008.53
2022-09-09T11:14:44.733Z,1008.48
2022-09-09T11:15:49.172Z,1008.54
2022-09-09T11:16:53.760Z,1008.55
2022-09-09T11:17:58.110Z,1008.57
2022-09-09T11:19:02.371Z,1008.56
2022-09-09T11:20:06.739Z,1008.58
2022-09-09T11:21:11.113Z,1008.56
2022-09-09T11:22:15.490Z,1008.60
2022-09-09T11:23:19.926Z,1008.63
2022-09-09T11:24:24.361Z,1008.63
2022-09-09T11:25:28.780Z,1008.63
2022-09-09T11:26:33.107Z,1008.65
2022-09-09T11:27:37.593Z,1008.64
2022-09-09T11:28:41.935Z,1008.64
2022-09-09T11:29:46.349Z,1008.63
2022-09-09T11:30:56.613Z,1008.64
2022-09-09T11:31:55.072Z,1008.63
2022-09-09T11:32:59.469Z,1008.62
2022-09-09T11:34:03.823Z,1008.65
2022-09-09T11:35:08.359Z,1008.64
2022-09-09T11:36:12.769Z,1008.63
2022-09-09T11:37:17.156Z,1008.63
2022-09-09T11:38:21.559Z,1008.62
2022-09-09T11:39:25.866Z,1008.62
2022-09-09T11:40:30.292Z,1008.62
2022-09-09T11:41:34.742Z,1008.63
2022-09-09T11:42:39.175Z,1008.63
2022-09-09T11:43:43.621Z,1008.63
2022-09-09T11:44:48.009Z,1008.64
2022-09-09T11:45:53.106Z,1008.68
2022-09-09T11:46:56.716Z,1008.65
2022-09-09T11:48:01.202Z,1008.66
2022-09-09T11:49:05.713Z,1008.66
2022-09-09T11:50:10.097Z,1008.70
2022-09-09T11:51:17.091Z,1008.68
2022-09-09T11:52:18.833Z,1008.70
2022-09-09T11:53:23.319Z,1008.70
2022-09-09T11:54:27.641Z,1008.72
2022-09-09T11:55:32.051Z,1008.70
2022-09-09T11:56:36.523Z,1008.68
2022-09-09T11:57:40.923Z,1008.69
2022-09-09T11:58:45.409Z,1008.63
2022-09-09T11:59:49.813Z,1008.59
2022-09-09T12:00:54.178Z,1008.57
2022-09-09T12:01:58.588Z,1008.54
2022-09-09T12:03:02.913Z,1008.53
2022-09-09T12:04:07.480Z,1008.51
2022-09-09T12:05:11.762Z,1008.51
2022-09-09T12:06:16.200Z,1008.48
2022-09-09T12:07:20.720Z,1008.45
2022-09-09T12:08:25.119Z,1008.42
2022-09-09T12:09:29.506Z,1008.40
2022-09-09T12:10:33.850Z,1008.34
2022-09-09T12:11:38.246Z,1008.36
2022-09-09T12:12:44.198Z,1008.37
2022-09-09T12:13:46.999Z,1008.36
2022-09-09T12:14:51.486Z,1008.33
2022-09-09T12:15:55.945Z,1008.33
2022-09-09T12:17:00.503Z,1008.32
2022-09-09T12:18:04.754Z,1008.30
2022-09-09T12:19:09.158Z,1008.30
2022-09-09T12:20:13.733Z,1008.26
2022-09-09T12:21:18.077Z,1008.26
2022-09-09T12:22:22.601Z,1008.26
2022-09-09T12:23:26.920Z,1008.26
2022-09-09T12:24:31.321Z,1008.26
2022-09-09T12:25:35.735Z,1008.27
2022-09-09T12:26:40.248Z,1008.27
2022-09-09T12:27:44.608Z,1008.30
2022-09-09T12:28:49.065Z,1008.32
2022-09-09T12:29:53.544Z,1008.30
2022-09-09T12:30:58.079Z,1008.26
2022-09-09T12:32:02.433Z,1008.25
2022-09-09T12:33:06.800Z,1008.23
2022-09-09T12:34:11.256Z,1008.22
2022-09-09T12:35:15.694Z,1008.23
2022-09-09T12:36:20.045Z,1008.22
2022-09-09T12:37:24.539Z,1008.22
2022-09-09T12:38:28.914Z,1008.24
2022-09-09T12:39:33.506Z,1008.23
2022-09-09T12:40:37.759Z,1008.25
2022-09-09T12:41:42.141Z,1008.29
2022-09-09T12:42:46.623Z,1008.26
2022-09-09T12:43:50.954Z,1008.26
2022-09-09T12:44:55.412Z,1008.22
2022-09-09T12:45:59.922Z,1008.22
2022-09-09T12:48:32.098Z,1008.21
2022-09-09T12:49:35.912Z,1008.19
2022-09-09T12:50:40.408Z,1008.18
2022-09-09T12:51:44.721Z,1008.16
2022-09-09T12:52:49.217Z,1008.17
2022-09-09T12:53:53.625Z,1008.16
2022-09-09T12:54:58.117Z,1008.16
2022-09-09T12:56:02.451Z,1008.14
2022-09-09T12:57:20.841Z,1008.15
2022-09-09T12:58:24.172Z,1008.12
2022-09-09T12:59:28.484Z,1008.13
2022-09-09T13:00:32.980Z,1008.12
2022-09-09T13:01:40.428Z,1008.12
2022-09-09T13:02:43.879Z,1008.14